Time;durP1;ratioP1;P1;durP2;ratioP2;P2;SDS_P1;SDS_P2;PMS_P1;PMS_P2;Temp;Humidity;BMP_temperature;BMP_pressure;BME280_temperature;BME280_humidity;BME280_pressure;Samples;Min_cycle;Max_cycle;Signal;HPM_P1;HPM_P2
2022/11/07 06:05:39;;;;;;;;;;;;;;;17.75;59.70;99613.94;1955782;72;20194;-83
2022/11/07 06:08:28;;;;;;;;;;;;;;;18.18;59.19;99618.63;1914281;73;20185;-84
2022/11/07 06:11:16;;;;;;;;;;;;;;;19.01;57.87;99611.47;1889754;75;20215;-82
2022/11/07 06:14:03;;;;;;;;;;;;;;;19.68;56.75;99596.77;1887200;75;20281;-79
2022/11/07 06:16:51;;;;;;;;;;;;;;;20.29;55.64;99606.25;1893532;75;20176;-79
2022/11/07 06:19:38;;;;;;;;;;;;;;;20.77;54.67;99603.88;1892658;75;20110;-79
2022/11/07 06:22:25;;;;;;;;;;;;;;;21.14;53.74;99594.00;1907561;75;20224;-81
2022/11/07 06:25:13;;;;;;;;;;;;;;;21.47;52.94;99605.45;1908192;75;20167;-81
2022/11/07 06:28:04;;;;;;;;;;;;;;;21.72;52.29;99612.27;1908132;75;21447;-79
2022/11/07 06:30:52;;;;;;;;;;;;;;;21.91;51.54;99613.44;1891218;75;20209;-78
2022/11/07 06:33:39;;;;;;;;;;;;;;;22.10;50.85;99619.75;1908436;75;21432;-78
2022/11/07 06:36:27;;;;;;;1.70;1.60;;;;;;;22.22;50.37;99625.33;1885622;75;28399;-78
2022/11/07 06:39:16;;;;;;;1.80;1.70;;;;;;;22.26;48.99;99614.22;1894784;75;28174;-79
2022/11/07 06:42:13;;;;;;;1.70;1.60;;;;;;;22.30;48.10;99609.42;1877081;75;31158;-78
2022/11/07 06:44:54;;;;;;;2.20;2.00;;;;;;;22.39;47.17;99622.25;1882589;73;30048;-77
2022/11/07 06:47:42;;;;;;;2.15;2.00;;;;;;;22.41;46.68;99629.69;1882296;75;33079;-78
2022/11/07 06:50:32;;;;;;;2.60;1.70;;;;;;;22.49;46.27;99630.23;1890742;75;33020;-78
2022/11/07 06:53:20;;;;;;;4.15;2.12;;;;;;;22.57;45.97;99635.37;1883450;75;28623;-77
2022/11/07 06:56:13;;;;;;;2.27;1.85;;;;;;;22.61;45.85;99639.34;1888178;75;28068;-78
2022/11/07 06:59:02;;;;;;;1.90;1.80;;;;;;;22.65;45.68;99633.73;1882569;75;28211;-77
2022/11/07 07:01:50;;;;;;;3.30;2.10;;;;;;;22.68;45.60;99632.44;1879582;75;28185;-77
2022/11/07 07:04:40;;;;;;;1.80;1.70;;;;;;;22.70;45.48;99628.92;1888619;74;28106;-77
2022/11/07 07:07:29;;;;;;;1.80;1.70;;;;;;;22.69;45.45;99636.83;1871391;75;28193;-77
2022/11/07 07:10:18;;;;;;;1.83;1.73;;;;;;;22.68;45.40;99635.98;1878190;75;28165;-77
2022/11/07 07:13:06;;;;;;;1.70;1.60;;;;;;;22.64;45.40;99630.67;1887980;75;30039;-77
2022/11/07 07:15:56;;;;;;;1.90;1.80;;;;;;;22.66;45.43;99638.68;1873753;75;28126;-77
2022/11/07 07:18:44;;;;;;;2.70;1.70;;;;;;;22.65;45.47;99642.47;1875248;75;28080;-78
2022/11/07 07:21:33;;;;;;;2.60;1.75;;;;;;;22.64;45.44;99644.89;1866615;75;28635;-78
2022/11/07 07:24:23;;;;;;;4.50;1.77;;;;;;;22.66;45.48;99646.89;1889524;75;28071;-77
2022/11/07 07:27:11;;;;;;;2.00;1.70;;;;;;;22.62;45.49;99652.51;1871947;75;28565;-76
2022/11/07 07:30:00;;;;;;;1.80;1.70;;;;;;;22.64;45.56;99653.95;1869048;75;28141;-77
2022/11/07 07:32:49;;;;;;;1.70;1.60;;;;;;;22.66;45.73;99655.11;1876786;75;28159;-77
2022/11/07 07:35:37;;;;;;;3.15;1.98;;;;;;;22.69;45.86;99651.89;1862511;75;28165;-81
2022/11/07 07:38:25;;;;;;;1.57;1.53;;;;;;;22.69;45.90;99651.36;1874125;75;28076;-79
2022/11/07 19:05:31;;;;;;;;;;;;;;;17.42;59.18;99342.69;1959729;72;20182;-82
2022/11/07 19:08:19;;;;;;;;;;;;;;;17.80;58.63;99345.22;1899511;74;20164;-83
2022/11/07 19:11:07;;;;;;;;;;;;;;;18.62;57.16;99345.63;1899301;75;20195;-82
2022/11/07 19:13:56;;;;;;;;;;;;;;;19.31;55.75;99337.66;1904584;75;20131;-80
2022/11/07 19:16:43;;;;;;;;;;;;;;;19.91;54.45;99346.33;1899343;75;20177;-89
2022/11/07 19:19:34;;;;;;;;;;;;;;;20.35;53.38;99338.03;1921083;75;20113;-83
2022/11/07 19:22:23;;;;;;;;;;;;;;;20.76;52.91;99342.89;1921382;75;20207;-81
2022/11/07 19:25:11;;;;;;;7.12;5.83;;;;;;;21.10;54.06;99342.84;1914290;75;20540;-82
2022/11/07 19:27:59;;;;;;;59.55;21.30;;;;;;;21.37;55.55;99334.63;1891680;75;28142;-81
2022/11/07 19:30:49;;;;;;;7.00;4.50;;;;;;;21.61;55.96;99334.20;1891587;75;28249;-84
2022/11/07 19:33:39;;;;;;;4.95;3.60;;;;;;;21.60;49.64;99337.99;1890612;75;28088;-83
2022/11/07 19:36:27;;;;;;;3.60;3.10;;;;;;;21.34;46.33;99343.28;1886267;75;28187;-84
2022/11/07 19:39:17;;;;;;;5.67;3.52;;;;;;;21.09;44.58;99345.28;1883476;75;28156;-84
2022/11/07 19:42:07;;;;;;;5.03;3.43;;;;;;;20.94;43.66;99345.63;1891936;75;28017;-88
